Dead River Township, Maine
Current Conditions -  °F | °C
As of 4:55 AM on Friday 28 Nov 2014 (Local Time) from KWVL Reporting Station
Broken Clouds Broken Clouds  
Wind Chill: 11°   Ceiling: 2400
Heat Index: 18°   Visibility: 10mi
Dew Point: 10°   Wind: 5mph
Humidity: 73%   Direction: 360°N
Pressure: 29.99"   Gusts: NA
Location:  45.0341°N, 70.0886°W
Report Text: KWVL 280955Z 36004KT 10SM BKN024 BKN110 M08/M12 A2999 RMK AO1
Loading
Personal Weather Stations






























Interactive Weather Map New forecast layout! Learn more

10-Day Weather Forecast

Advertisements
Track Severe Weather on mobile